الصفحة الرئيسية
METAR-TAF:

METAR-TAF

مطار :

مطار لوس أنجلوس الدولي

لوس أنجلوس, كاليفورنيا, الولايات المتحدة

دائرة عرض: 33-56-17N, خط طول: 118-23-20W, ارتفاع: 38 متر

مراقبة الطقس الحالي

تاريخ ووقت الإصدار 1ساعة و 2 دقيقة قبل الساعة 03:53UTC
ريح 8 عقدة من الغرب/الجنوب الغربي
درجة الحرارة 23°درجة مئوية
الرطوبة 83%
ضغط 1017 hPa
الرؤية: 16.1 كم
ملبد بالغيوم على ارتفاع 1000 قدم

METAR: KLAX 180353Z 24008KT 10SM OVC010 23/20 A3002 RMK AO2 SLP162 T02280200

زمن: 21:55 (04:55 UTC)

توقعات

تاريخ ووقت الإصدار 1ساعة و 50 دقيقة قبل الساعة 03:05UTC
التوقعات صالحة من18 الساعة 03 UTC إلى 19 الساعة 06 UTC
ريح 7 عقدة من الغرب/الجنوب الغربي
الرؤية: 10 كم
ملبد بالغيوم على ارتفاع 1000 قدم
من 18 الساعة 1100 UTC
ريح 8 عقدة من الغرب
الرؤية: 9.7 كم
ملبد بالغيوم على ارتفاع 1500 قدم
العجاج
من 18 الساعة 1900 UTC
ريح 11 عقدة من الغرب
الرؤية: 10 كم
غيوم متفرقة على ارتفاع 1500 قدم
من 19 الساعة 0400 UTC
ريح 6 عقدة من الغرب
الرؤية: 10 كم
غيوم متفرقة على ارتفاع 1000 قدم

TAF: KLAX 180305Z 1803/1906 25007KT P6SM OVC010 FM181100 26008KT 6SM HZ OVC015 FM181900 26011KT P6SM SCT015 FM190400 26006KT P6SM SCT010

أرصاد الطقس والتوقعات من أكثر من 4000 مطار (تقارير الطقس للمطار METAR والتنبؤ بالطقس بالمطارTAF).

المحطات المتاحة هي النقط الصفراء والحمراء على الخريطة.

حرك المؤشر فوق النقطة لمعرفة اسم المحطة.

ثم انقر لمعرفة أرصاد وتوقعات الطقس.

لتغيير الخارطة: اضغط على الأزرار الخضراء مع رمز الصليب الأسود للتكبير. على الزر الأخضر مع شرطة للتصغير، أو على الأسهم الخضراء للخرائط المجاورة.


METAR-TAF: